createdAt,value
2023-02-04T00:00:29.882Z,5.00
2023-02-04T00:03:15.968Z,4.80
2023-02-04T00:06:06.747Z,4.70
2023-02-04T00:08:48.628Z,4.60
2023-02-04T00:11:33.628Z,4.50
2023-02-04T00:14:11.652Z,4.60
2023-02-04T00:16:48.449Z,4.50
2023-02-04T00:19:36.923Z,4.50
2023-02-04T00:22:13.452Z,4.50
2023-02-04T00:24:50.598Z,4.50
2023-02-04T00:27:20.450Z,4.70
2023-02-04T00:29:57.265Z,4.50
2023-02-04T00:32:48.161Z,4.50
2023-02-04T00:35:30.859Z,4.40
2023-02-04T00:38:13.419Z,4.50
2023-02-04T00:40:43.669Z,4.40
2023-02-04T00:46:20.960Z,4.30
2023-02-04T00:49:15.327Z,4.30
2023-02-04T00:51:53.097Z,4.30
2023-02-04T00:54:33.811Z,4.30
2023-02-04T00:57:08.799Z,4.40
2023-02-04T00:59:50.433Z,4.30
2023-02-04T01:02:24.801Z,4.30
2023-02-04T01:04:55.843Z,4.40
2023-02-04T01:11:11.002Z,4.20
2023-02-04T01:16:39.098Z,4.10
2023-02-04T01:19:21.059Z,4.20
2023-02-04T01:22:00.930Z,4.10
2023-02-04T01:24:44.786Z,4.10
2023-02-04T01:27:30.072Z,4.10
2023-02-04T01:30:23.010Z,4.10
2023-02-04T01:32:55.177Z,4.10
2023-02-04T01:35:30.538Z,4.10
2023-02-04T01:38:07.201Z,4.10
2023-02-04T01:40:51.656Z,4.00
2023-02-04T01:43:40.735Z,3.90
2023-02-04T01:46:28.993Z,3.90
2023-02-04T01:49:10.541Z,3.90
2023-02-04T01:51:50.707Z,3.90
2023-02-04T01:54:37.897Z,3.90
2023-02-04T01:57:10.862Z,3.80
2023-02-04T02:00:02.434Z,3.80
2023-02-04T02:03:10.215Z,3.70
2023-02-04T02:05:41.257Z,3.70
2023-02-04T02:08:23.543Z,3.60
2023-02-04T02:11:04.758Z,3.60
2023-02-04T02:13:33.641Z,3.60
2023-02-04T02:16:08.227Z,3.60
2023-02-04T02:18:55.561Z,3.60
2023-02-04T02:21:31.403Z,3.60
2023-02-04T02:24:36.860Z,3.60
2023-02-04T02:27:30.027Z,3.60
2023-02-04T02:30:03.252Z,3.50
2023-02-04T02:32:34.081Z,3.50
2023-02-04T02:35:03.704Z,3.50
2023-02-04T02:37:44.968Z,3.50
2023-02-04T02:40:24.559Z,3.50
2023-02-04T02:43:04.291Z,3.60
2023-02-04T02:45:40.758Z,3.50
2023-02-04T02:48:18.839Z,3.50
2023-02-04T02:50:49.335Z,3.60
2023-02-04T02:53:23.747Z,3.60
2023-02-04T02:56:01.837Z,3.60
2023-02-04T02:58:37.708Z,3.60
2023-02-04T03:01:09.415Z,3.70
2023-02-04T03:03:40.031Z,3.70
2023-02-04T03:06:15.566Z,3.70
2023-02-04T03:08:53.142Z,3.60
2023-02-04T03:11:27.458Z,3.70
2023-02-04T03:14:01.990Z,3.70
2023-02-04T03:16:41.952Z,3.70
2023-02-04T03:19:14.008Z,3.70
2023-02-04T03:21:59.482Z,3.60
2023-02-04T03:24:29.846Z,3.50
2023-02-04T03:27:12.997Z,3.60
2023-02-04T03:29:57.711Z,3.50
2023-02-04T03:32:42.047Z,3.50
2023-02-04T03:35:26.157Z,3.50
2023-02-04T03:37:56.836Z,3.50
2023-02-04T03:40:36.847Z,3.50
2023-02-04T03:43:08.771Z,3.40
2023-02-04T03:45:45.817Z,3.40
2023-02-04T03:48:15.562Z,3.50
2023-02-04T03:50:55.751Z,3.40
2023-02-04T03:53:50.214Z,3.50
2023-02-04T03:56:23.634Z,3.60
2023-02-04T03:59:01.679Z,3.40
2023-02-04T04:04:35.816Z,3.30
2023-02-04T04:07:05.069Z,3.30
2023-02-04T04:09:37.748Z,3.30
2023-02-04T04:12:08.763Z,3.40
2023-02-04T04:14:40.761Z,3.50
2023-02-04T04:17:13.921Z,3.40
2023-02-04T04:19:54.059Z,3.50
2023-02-04T04:22:29.786Z,3.50
2023-02-04T04:25:28.788Z,3.40
2023-02-04T04:28:06.214Z,3.50
2023-02-04T04:30:48.519Z,3.40
2023-02-04T04:33:19.982Z,3.40
2023-02-04T04:35:56.452Z,3.40
2023-02-04T04:38:28.784Z,3.30
2023-02-04T04:41:15.023Z,3.30
2023-02-04T04:43:45.607Z,3.20
2023-02-04T04:46:30.538Z,3.20
2023-02-04T04:49:01.091Z,3.10
2023-02-04T04:51:35.536Z,3.10
2023-02-04T04:54:30.008Z,3.10
2023-02-04T04:57:10.577Z,3.10
2023-02-04T04:59:56.938Z,3.10
2023-02-04T05:02:33.262Z,3.10
2023-02-04T05:05:05.007Z,3.00
2023-02-04T05:07:55.125Z,3.10
2023-02-04T05:10:25.691Z,3.00
2023-02-04T05:15:53.046Z,3.10
2023-02-04T05:18:37.764Z,3.20
2023-02-04T05:21:29.088Z,3.20
2023-02-04T05:24:04.969Z,3.30
2023-02-04T05:26:54.149Z,3.20
2023-02-04T05:29:28.459Z,3.20
2023-02-04T05:32:06.541Z,3.10
2023-02-04T05:34:53.571Z,3.10
2023-02-04T05:37:51.073Z,3.10
2023-02-04T05:40:22.694Z,3.10
2023-02-04T05:42:53.264Z,3.10
2023-02-04T05:45:23.572Z,3.20
2023-02-04T05:48:06.855Z,3.10
2023-02-04T05:53:38.220Z,3.10
2023-02-04T05:56:16.132Z,3.20
2023-02-04T05:58:54.869Z,3.10
2023-02-04T06:01:42.538Z,3.10
2023-02-04T06:04:18.463Z,3.10
2023-02-04T06:06:48.625Z,3.20
2023-02-04T06:09:45.699Z,3.10
2023-02-04T06:18:05.121Z,3.00
2023-02-04T06:20:52.130Z,3.00
2023-02-04T06:23:35.901Z,2.90
2023-02-04T06:26:26.473Z,2.80
2023-02-04T06:29:14.705Z,2.80
2023-02-04T06:31:59.808Z,2.70
2023-02-04T06:34:40.947Z,2.70
2023-02-04T06:37:13.585Z,2.70
2023-02-04T06:39:50.208Z,2.60
2023-02-04T06:42:36.680Z,2.60
2023-02-04T06:45:29.413Z,2.60
2023-02-04T06:48:14.232Z,2.60
2023-02-04T06:51:00.180Z,2.60
2023-02-04T06:53:40.947Z,2.60
2023-02-04T06:56:16.936Z,2.60
2023-02-04T06:58:49.559Z,2.50
2023-02-04T07:01:34.408Z,2.50
2023-02-04T07:04:20.909Z,2.50
2023-02-04T07:06:57.453Z,2.40
2023-02-04T07:09:42.854Z,2.40
2023-02-04T07:12:24.613Z,2.40
2023-02-04T07:15:11.161Z,2.40
2023-02-04T07:17:50.870Z,2.30
2023-02-04T07:20:25.898Z,2.40
2023-02-04T07:23:11.579Z,2.50
2023-02-04T07:25:44.231Z,2.50
2023-02-04T07:28:21.093Z,2.50
2023-02-04T07:30:59.094Z,2.50
2023-02-04T07:33:43.670Z,2.40
2023-02-04T07:36:15.312Z,2.50
2023-02-04T07:38:48.484Z,2.70
2023-02-04T07:41:25.674Z,2.60
2023-02-04T07:44:12.244Z,2.80
2023-02-04T07:47:00.431Z,2.70
2023-02-04T07:49:34.021Z,2.80
2023-02-04T07:52:16.412Z,2.80
2023-02-04T07:54:49.932Z,2.80
2023-02-04T07:57:30.900Z,2.70
2023-02-04T08:00:06.030Z,2.70
2023-02-04T08:02:43.660Z,2.80
2023-02-04T08:05:23.639Z,2.80
2023-02-04T08:08:06.393Z,2.90
2023-02-04T08:10:39.622Z,3.00
2023-02-04T08:13:19.651Z,3.10
2023-02-04T08:15:58.838Z,3.20
2023-02-04T08:18:54.567Z,3.20
2023-02-04T08:21:39.539Z,3.30
2023-02-04T08:24:15.846Z,3.30
2023-02-04T08:30:10.491Z,3.30
2023-02-04T08:35:57.726Z,3.30
2023-02-04T08:38:38.352Z,3.20
2023-02-04T08:41:13.233Z,3.30
2023-02-04T08:43:49.787Z,3.30
2023-02-04T08:46:26.353Z,3.40
2023-02-04T08:49:15.211Z,3.40
2023-02-04T08:54:47.815Z,3.60
2023-02-04T08:57:23.926Z,3.60
2023-02-04T09:00:13.269Z,3.70
2023-02-04T09:02:44.025Z,3.80
2023-02-04T09:05:28.950Z,3.70
2023-02-04T09:08:11.831Z,3.60
2023-02-04T09:10:51.854Z,3.60
2023-02-04T09:13:27.036Z,3.60
2023-02-04T09:16:03.004Z,3.70
2023-02-04T09:18:39.333Z,3.80
2023-02-04T09:21:25.277Z,3.90
2023-02-04T09:24:04.324Z,3.90
2023-02-04T09:27:02.553Z,3.90
2023-02-04T09:29:44.542Z,4.10
2023-02-04T09:32:18.389Z,4.00
2023-02-04T09:35:23.378Z,4.00
2023-02-04T09:37:59.674Z,4.00
2023-02-04T09:40:43.741Z,4.10
2023-02-04T09:43:18.540Z,4.10
2023-02-04T09:48:51.057Z,4.00
2023-02-04T09:51:26.130Z,4.10
2023-02-04T09:53:59.031Z,4.30
2023-02-04T09:56:44.962Z,4.40
2023-02-04T09:59:25.117Z,4.50
2023-02-04T10:02:12.467Z,4.60
2023-02-04T10:04:46.710Z,4.70
2023-02-04T10:07:22.863Z,4.80
2023-02-04T10:09:53.101Z,5.00
2023-02-04T10:12:28.781Z,4.80
2023-02-04T10:15:06.056Z,4.70
2023-02-04T10:17:35.168Z,4.90
2023-02-04T10:20:20.643Z,5.20
2023-02-04T10:22:50.494Z,5.20
2023-02-04T10:25:36.506Z,5.30
2023-02-04T10:31:00.350Z,5.50
2023-02-04T10:33:33.573Z,5.60
2023-02-04T10:36:25.260Z,5.60
2023-02-04T10:39:05.108Z,5.80
2023-02-04T10:41:39.684Z,5.90
2023-02-04T10:44:27.835Z,5.70
2023-02-04T10:47:17.936Z,5.50
2023-02-04T10:50:05.295Z,5.30
2023-02-04T10:52:52.182Z,5.30
2023-02-04T10:55:30.245Z,5.30
2023-02-04T10:58:03.745Z,5.40
2023-02-04T11:03:31.125Z,5.40
2023-02-04T11:06:00.936Z,5.60
2023-02-04T11:08:31.585Z,5.60
2023-02-04T11:11:01.296Z,5.90
2023-02-04T11:13:41.736Z,6.10
2023-02-04T11:16:12.147Z,6.30
2023-02-04T11:18:50.706Z,6.30
2023-02-04T11:21:26.876Z,6.40
2023-02-04T11:24:05.956Z,6.10
2023-02-04T11:26:35.982Z,5.90
2023-02-04T11:29:19.335Z,6.00
2023-02-04T11:31:58.933Z,6.10
2023-02-04T11:34:31.177Z,6.20
2023-02-04T11:37:08.458Z,6.20
2023-02-04T11:39:39.185Z,5.90
2023-02-04T11:42:08.448Z,5.90
2023-02-04T11:44:36.794Z,6.00
2023-02-04T11:47:08.608Z,6.00
2023-02-04T11:49:38.705Z,6.20
2023-02-04T11:52:09.158Z,6.20
2023-02-04T11:54:38.704Z,6.30
2023-02-04T11:57:07.343Z,6.60
2023-02-04T11:59:36.471Z,6.80
2023-02-04T12:02:06.403Z,6.70
2023-02-04T12:04:34.925Z,6.70
2023-02-04T12:07:06.216Z,6.60
2023-02-04T12:09:34.700Z,6.30
2023-02-04T12:12:04.315Z,6.00
2023-02-04T12:14:34.594Z,6.00
2023-02-04T12:17:03.335Z,6.20
2023-02-04T12:19:32.133Z,6.20
2023-02-04T12:22:01.413Z,6.30
2023-02-04T12:24:31.693Z,6.30
2023-02-04T12:27:00.617Z,6.40
2023-02-04T12:29:29.101Z,6.60
2023-02-04T12:31:58.027Z,6.40
2023-02-04T12:34:26.719Z,6.10
2023-02-04T12:36:55.063Z,5.90
2023-02-04T12:39:23.493Z,5.80
2023-02-04T12:41:54.056Z,5.60
2023-02-04T12:44:23.232Z,5.50
2023-02-04T12:46:51.890Z,5.50
2023-02-04T12:49:20.330Z,5.60
2023-02-04T12:51:49.112Z,5.60
2023-02-04T12:54:17.616Z,5.50
2023-02-04T12:56:46.375Z,5.60
2023-02-04T12:59:16.792Z,5.80
2023-02-04T13:01:45.664Z,5.90
2023-02-04T13:04:14.673Z,5.60
2023-02-04T13:06:43.518Z,5.50
2023-02-04T13:09:11.526Z,5.60
2023-02-04T13:11:39.739Z,5.60
2023-02-04T13:14:08.272Z,5.80
2023-02-04T13:16:38.528Z,5.70
2023-02-04T13:19:07.015Z,5.50
2023-02-04T13:21:35.442Z,5.50
2023-02-04T13:24:04.451Z,5.40
2023-02-04T13:26:32.962Z,5.40
2023-02-04T13:29:01.549Z,5.30
2023-02-04T13:31:31.519Z,5.20
2023-02-04T13:34:01.580Z,5.10
2023-02-04T13:36:31.031Z,5.10
2023-02-04T13:39:01.124Z,5.10
2023-02-04T13:41:30.059Z,5.30
2023-02-04T13:43:58.884Z,5.30
2023-02-04T13:46:27.366Z,5.30
2023-02-04T13:48:56.723Z,5.30
2023-02-04T13:51:26.803Z,5.40
2023-02-04T13:53:55.216Z,5.50
2023-02-04T13:56:23.977Z,5.70
2023-02-04T13:58:52.945Z,5.90
2023-02-04T14:01:21.371Z,5.90
2023-02-04T14:03:49.584Z,5.80
2023-02-04T14:06:20.811Z,5.60
2023-02-04T14:08:50.536Z,5.50
2023-02-04T14:11:19.336Z,5.40
2023-02-04T14:13:47.976Z,5.30
2023-02-04T14:16:16.159Z,5.30
2023-02-04T14:18:44.475Z,5.40
2023-02-04T14:21:13.093Z,5.40
2023-02-04T14:23:42.078Z,5.30
2023-02-04T14:26:11.963Z,5.30
2023-02-04T14:28:40.170Z,5.20
2023-02-04T14:31:08.777Z,5.20
2023-02-04T14:33:37.410Z,5.10
2023-02-04T14:36:06.864Z,5.10
2023-02-04T14:38:35.519Z,5.10
2023-02-04T14:41:04.212Z,5.00
2023-02-04T14:43:37.567Z,5.00
2023-02-04T14:46:07.069Z,5.00
2023-02-04T14:48:36.078Z,5.00
2023-02-04T14:51:04.876Z,5.00
2023-02-04T14:53:34.252Z,5.00
2023-02-04T14:56:02.582Z,4.90
2023-02-04T14:58:31.656Z,4.90
2023-02-04T15:01:02.747Z,4.80
2023-02-04T15:03:31.887Z,4.80
2023-02-04T15:06:03.176Z,4.80
2023-02-04T15:08:33.105Z,4.70
2023-02-04T15:11:01.736Z,4.80
2023-02-04T15:13:30.596Z,4.70
2023-02-04T15:15:59.169Z,4.70
2023-02-04T15:18:29.332Z,4.70
2023-02-04T15:20:57.885Z,4.60
2023-02-04T15:23:26.365Z,4.60
2023-02-04T15:25:57.885Z,4.60
2023-02-04T15:28:28.144Z,4.50
2023-02-04T15:30:57.154Z,4.40
2023-02-04T15:33:25.611Z,4.30
2023-02-04T15:35:55.954Z,4.30
2023-02-04T15:38:24.710Z,4.30
2023-02-04T15:40:53.720Z,4.20
2023-02-04T15:43:21.821Z,4.10
2023-02-04T15:45:50.352Z,4.10
2023-02-04T15:48:20.319Z,4.10
2023-02-04T15:50:49.257Z,4.10
2023-02-04T15:53:19.887Z,4.00
2023-02-04T15:55:49.116Z,4.00
2023-02-04T15:58:17.600Z,3.90
2023-02-04T16:00:46.525Z,3.80
2023-02-04T16:03:15.025Z,3.80
2023-02-04T16:05:43.886Z,3.70
2023-02-04T16:08:12.524Z,3.70
2023-02-04T16:10:42.771Z,3.70
2023-02-04T16:13:11.489Z,3.60
2023-02-04T16:15:40.354Z,3.60
2023-02-04T16:18:09.125Z,3.60
2023-02-04T16:20:37.503Z,3.60
2023-02-04T16:23:07.500Z,3.50
2023-02-04T16:25:36.446Z,3.50
2023-02-04T16:28:06.669Z,3.50
2023-02-04T16:30:35.349Z,3.40
2023-02-04T16:33:03.976Z,3.40
2023-02-04T16:35:33.178Z,3.40
2023-02-04T16:38:01.748Z,3.30
2023-02-04T16:40:30.920Z,3.30
2023-02-04T16:42:59.542Z,3.30
2023-02-04T16:45:29.230Z,3.30
2023-02-04T16:47:57.247Z,3.30
2023-02-04T16:50:25.474Z,3.30
2023-02-04T16:52:53.632Z,3.30
2023-02-04T16:55:21.578Z,3.20
2023-02-04T16:57:49.937Z,3.20
2023-02-04T17:00:18.383Z,3.20
2023-02-04T17:02:49.205Z,3.20
2023-02-04T17:05:18.222Z,3.20
2023-02-04T17:07:47.066Z,3.20
2023-02-04T17:10:15.535Z,3.10
2023-02-04T17:12:44.823Z,3.10
2023-02-04T17:15:14.220Z,3.10
2023-02-04T17:17:42.733Z,3.10
2023-02-04T17:20:13.749Z,3.10
2023-02-04T17:22:42.693Z,3.00
2023-02-04T17:25:11.648Z,3.10
2023-02-04T17:27:40.346Z,3.10
2023-02-04T17:30:09.573Z,3.10
2023-02-04T17:32:38.909Z,3.10
2023-02-04T17:35:08.621Z,3.00
2023-02-04T17:37:38.877Z,2.90
2023-02-04T17:40:08.314Z,3.00
2023-02-04T17:42:37.240Z,3.00
2023-02-04T17:45:06.180Z,3.00
2023-02-04T17:47:36.181Z,3.00
2023-02-04T17:50:07.478Z,3.00
2023-02-04T17:52:36.092Z,2.90
2023-02-04T17:55:11.444Z,2.90
2023-02-04T17:57:40.015Z,2.90
2023-02-04T18:00:14.147Z,2.80
2023-02-04T18:02:42.988Z,2.80
2023-02-04T18:05:15.118Z,2.80
2023-02-04T18:07:46.862Z,2.80
2023-02-04T18:10:22.328Z,2.70
2023-02-04T18:12:54.182Z,2.70
2023-02-04T18:15:28.097Z,2.80
2023-02-04T18:18:01.352Z,2.80
2023-02-04T18:20:30.317Z,2.80
2023-02-04T18:23:02.523Z,2.70
2023-02-04T18:25:33.331Z,2.70
2023-02-04T18:28:03.337Z,2.60
2023-02-04T18:30:32.435Z,2.60
2023-02-04T18:33:01.164Z,2.50
2023-02-04T18:35:42.192Z,2.60
2023-02-04T18:38:21.011Z,2.60
2023-02-04T18:40:50.656Z,2.60
2023-02-04T18:43:23.906Z,2.50
2023-02-04T18:45:52.680Z,2.40
2023-02-04T18:48:39.300Z,2.50
2023-02-04T18:51:11.539Z,2.60
2023-02-04T18:53:41.521Z,2.60
2023-02-04T18:56:14.749Z,2.50
2023-02-04T18:58:44.260Z,2.60
2023-02-04T19:01:17.006Z,2.70
2023-02-04T19:03:49.300Z,2.70
2023-02-04T19:06:25.934Z,2.90
2023-02-04T19:08:55.758Z,2.80
2023-02-04T19:11:31.769Z,2.70
2023-02-04T19:14:00.764Z,2.70
2023-02-04T19:16:31.058Z,2.70
2023-02-04T19:19:00.193Z,2.80
2023-02-04T19:21:30.402Z,2.80
2023-02-04T19:24:06.329Z,3.00
2023-02-04T19:26:37.608Z,2.90
2023-02-04T19:29:25.212Z,2.90
2023-02-04T19:31:54.633Z,2.80
2023-02-04T19:34:25.416Z,2.90
2023-02-04T19:37:17.133Z,2.80
2023-02-04T19:39:45.625Z,2.80
2023-02-04T19:42:31.992Z,2.70
2023-02-04T19:45:02.991Z,2.60
2023-02-04T19:47:37.650Z,2.60
2023-02-04T19:50:21.435Z,2.60
2023-02-04T19:52:52.589Z,2.50
2023-02-04T19:55:32.162Z,2.50
2023-02-04T19:58:02.006Z,2.50
2023-02-04T20:00:45.536Z,2.50
2023-02-04T20:03:19.793Z,2.50
2023-02-04T20:05:48.621Z,2.50
2023-02-04T20:08:35.308Z,2.50
2023-02-04T20:11:13.492Z,2.50
2023-02-04T20:13:42.044Z,2.40
2023-02-04T20:16:34.010Z,2.40
2023-02-04T20:19:03.294Z,2.40
2023-02-04T20:21:35.342Z,2.40
2023-02-04T20:24:09.867Z,2.40
2023-02-04T20:26:38.688Z,2.40
2023-02-04T20:29:15.143Z,2.40
2023-02-04T20:31:45.357Z,2.40
2023-02-04T20:34:17.359Z,2.40
2023-02-04T20:36:47.124Z,2.30
2023-02-04T20:39:48.890Z,2.40
2023-02-04T20:42:32.347Z,2.30
2023-02-04T20:45:10.171Z,2.40
2023-02-04T20:47:41.020Z,2.40
2023-02-04T20:50:25.032Z,2.40
2023-02-04T20:53:06.785Z,2.40
2023-02-04T20:55:36.217Z,2.30
2023-02-04T20:58:18.441Z,2.20
2023-02-04T21:00:49.096Z,2.30
2023-02-04T21:03:30.316Z,2.30
2023-02-04T21:06:00.366Z,2.20
2023-02-04T21:08:34.795Z,2.30
2023-02-04T21:11:03.736Z,2.30
2023-02-04T21:13:33.200Z,2.20
2023-02-04T21:16:02.828Z,2.30
2023-02-04T21:18:35.434Z,2.30
2023-02-04T21:21:05.058Z,2.30
2023-02-04T21:23:33.826Z,2.20
2023-02-04T21:26:03.125Z,2.10
2023-02-04T21:28:32.223Z,2.10
2023-02-04T21:31:01.322Z,2.10
2023-02-04T21:33:30.646Z,2.10
2023-02-04T21:36:00.854Z,2.10
2023-02-04T21:38:29.775Z,2.10
2023-02-04T21:40:58.555Z,2.00
2023-02-04T21:43:27.193Z,2.10
2023-02-04T21:45:56.010Z,2.10
2023-02-04T21:48:25.289Z,2.20
2023-02-04T21:50:54.152Z,2.00
2023-02-04T21:53:26.732Z,2.00
2023-02-04T21:55:55.201Z,1.90
2023-02-04T21:58:24.005Z,1.80
2023-02-04T22:00:52.654Z,1.90
2023-02-04T22:03:22.553Z,2.00
2023-02-04T22:05:51.664Z,1.80
2023-02-04T22:08:20.953Z,1.80
2023-02-04T22:10:51.674Z,1.80
2023-02-04T22:13:20.384Z,1.80
2023-02-04T22:15:49.932Z,1.70
2023-02-04T22:18:18.966Z,1.80
2023-02-04T22:20:47.921Z,1.70
2023-02-04T22:23:16.976Z,1.70
2023-02-04T22:25:45.887Z,1.70
2023-02-04T22:28:16.292Z,1.60
2023-02-04T22:30:45.405Z,1.60
2023-02-04T22:33:14.560Z,1.60
2023-02-04T22:35:43.548Z,1.60
2023-02-04T22:38:12.663Z,1.70
2023-02-04T22:40:41.742Z,1.70
2023-02-04T22:43:22.401Z,1.60
2023-02-04T22:45:56.317Z,1.50
2023-02-04T22:48:28.221Z,1.40
2023-02-04T22:50:59.428Z,1.40
2023-02-04T22:53:31.600Z,1.40
2023-02-04T22:56:21.755Z,1.30
2023-02-04T22:59:05.671Z,1.30
2023-02-04T23:01:50.467Z,1.30
2023-02-04T23:04:24.737Z,1.20
2023-02-04T23:06:58.485Z,1.20
2023-02-04T23:12:36.090Z,1.20
2023-02-04T23:18:49.472Z,1.10
2023-02-04T23:21:39.841Z,1.10
2023-02-04T23:24:20.161Z,0.90
2023-02-04T23:27:25.599Z,0.90
2023-02-04T23:30:25.660Z,0.90
2023-02-04T23:36:14.569Z,0.80
2023-02-04T23:38:59.991Z,0.80
2023-02-04T23:44:21.637Z,0.70
2023-02-04T23:47:16.594Z,0.60
2023-02-04T23:49:52.648Z,0.40
2023-02-04T23:52:29.606Z,0.40
2023-02-04T23:55:03.210Z,0.40
2023-02-04T23:57:53.769Z,0.40
